sensor_id;sensor_type;location;lat;lon;timestamp;P1;durP1;ratioP1;P2;durP2;ratioP2
56319;SDS011;42226;42.382;23.748;2023-07-31T00:01:21;6.55;;;6.05;;
56319;SDS011;42226;42.382;23.748;2023-07-31T00:03:48;5.78;;;5.15;;
56319;SDS011;42226;42.382;23.748;2023-07-31T00:06:16;5.25;;;4.85;;
56319;SDS011;42226;42.382;23.748;2023-07-31T00:08:44;5.65;;;5.13;;
56319;SDS011;42226;42.382;23.748;2023-07-31T00:11:10;6.32;;;5.28;;
56319;SDS011;42226;42.382;23.748;2023-07-31T00:13:38;6.15;;;5.10;;
56319;SDS011;42226;42.382;23.748;2023-07-31T00:16:04;6.65;;;5.97;;
56319;SDS011;42226;42.382;23.748;2023-07-31T00:18:32;16.25;;;6.68;;
56319;SDS011;42226;42.382;23.748;2023-07-31T00:21:00;7.07;;;5.78;;
56319;SDS011;42226;42.382;23.748;2023-07-31T00:23:27;8.63;;;6.35;;
56319;SDS011;42226;42.382;23.748;2023-07-31T00:25:54;8.15;;;6.10;;
56319;SDS011;42226;42.382;23.748;2023-07-31T00:28:21;7.00;;;6.30;;
56319;SDS011;42226;42.382;23.748;2023-07-31T00:30:48;9.57;;;6.30;;
56319;SDS011;42226;42.382;23.748;2023-07-31T00:33:15;6.45;;;5.85;;
56319;SDS011;42226;42.382;23.748;2023-07-31T00:35:42;8.63;;;6.30;;
56319;SDS011;42226;42.382;23.748;2023-07-31T00:38:09;7.63;;;6.50;;
56319;SDS011;42226;42.382;23.748;2023-07-31T00:40:36;6.43;;;5.93;;
56319;SDS011;42226;42.382;23.748;2023-07-31T00:43:04;7.18;;;6.50;;
56319;SDS011;42226;42.382;23.748;2023-07-31T00:45:32;7.38;;;6.68;;
56319;SDS011;42226;42.382;23.748;2023-07-31T00:48:00;6.25;;;5.53;;
56319;SDS011;42226;42.382;23.748;2023-07-31T00:50:28;8.60;;;6.25;;
56319;SDS011;42226;42.382;23.748;2023-07-31T00:52:57;7.03;;;6.35;;
56319;SDS011;42226;42.382;23.748;2023-07-31T00:55:26;6.75;;;6.05;;
56319;SDS011;42226;42.382;23.748;2023-07-31T00:57:53;8.05;;;7.20;;
56319;SDS011;42226;42.382;23.748;2023-07-31T01:00:20;8.50;;;6.70;;
56319;SDS011;42226;42.382;23.748;2023-07-31T01:02:50;9.10;;;6.90;;
56319;SDS011;42226;42.382;23.748;2023-07-31T01:05:19;9.13;;;6.95;;
56319;SDS011;42226;42.382;23.748;2023-07-31T01:08:22;7.35;;;6.65;;
56319;SDS011;42226;42.382;23.748;2023-07-31T01:11:00;7.72;;;6.88;;
56319;SDS011;42226;42.382;23.748;2023-07-31T01:13:36;7.47;;;6.75;;
56319;SDS011;42226;42.382;23.748;2023-07-31T01:16:05;8.27;;;7.55;;
56319;SDS011;42226;42.382;23.748;2023-07-31T01:18:32;9.02;;;7.22;;
56319;SDS011;42226;42.382;23.748;2023-07-31T01:21:21;10.27;;;7.13;;
56319;SDS011;42226;42.382;23.748;2023-07-31T01:24:14;9.18;;;7.00;;
56319;SDS011;42226;42.382;23.748;2023-07-31T01:27:21;7.72;;;6.93;;
56319;SDS011;42226;42.382;23.748;2023-07-31T01:32:43;7.45;;;6.75;;
56319;SDS011;42226;42.382;23.748;2023-07-31T01:35:12;9.85;;;6.55;;
56319;SDS011;42226;42.382;23.748;2023-07-31T01:37:40;7.25;;;6.60;;
56319;SDS011;42226;42.382;23.748;2023-07-31T01:40:08;7.47;;;6.78;;
56319;SDS011;42226;42.382;23.748;2023-07-31T01:42:35;7.80;;;6.80;;
56319;SDS011;42226;42.382;23.748;2023-07-31T01:45:03;7.38;;;6.50;;
56319;SDS011;42226;42.382;23.748;2023-07-31T01:47:31;7.47;;;6.93;;
56319;SDS011;42226;42.382;23.748;2023-07-31T01:49:59;7.80;;;7.03;;
56319;SDS011;42226;42.382;23.748;2023-07-31T01:52:26;7.15;;;6.53;;
56319;SDS011;42226;42.382;23.748;2023-07-31T01:54:53;6.57;;;6.05;;
56319;SDS011;42226;42.382;23.748;2023-07-31T01:57:20;7.15;;;6.57;;
56319;SDS011;42226;42.382;23.748;2023-07-31T01:59:47;7.32;;;6.57;;
56319;SDS011;42226;42.382;23.748;2023-07-31T02:02:15;7.25;;;6.65;;
56319;SDS011;42226;42.382;23.748;2023-07-31T02:04:43;7.53;;;6.75;;
56319;SDS011;42226;42.382;23.748;2023-07-31T02:07:11;6.78;;;6.25;;
56319;SDS011;42226;42.382;23.748;2023-07-31T02:09:39;6.47;;;5.97;;
56319;SDS011;42226;42.382;23.748;2023-07-31T02:12:06;6.32;;;5.72;;
56319;SDS011;42226;42.382;23.748;2023-07-31T02:14:34;6.20;;;5.72;;
56319;SDS011;42226;42.382;23.748;2023-07-31T02:17:20;6.80;;;6.30;;
56319;SDS011;42226;42.382;23.748;2023-07-31T02:19:48;6.55;;;6.03;;
56319;SDS011;42226;42.382;23.748;2023-07-31T02:22:15;6.90;;;6.40;;
56319;SDS011;42226;42.382;23.748;2023-07-31T02:24:42;5.70;;;5.30;;
56319;SDS011;42226;42.382;23.748;2023-07-31T02:27:10;6.00;;;5.60;;
56319;SDS011;42226;42.382;23.748;2023-07-31T02:29:37;6.63;;;6.13;;
56319;SDS011;42226;42.382;23.748;2023-07-31T02:32:05;6.43;;;5.82;;
56319;SDS011;42226;42.382;23.748;2023-07-31T02:34:32;6.05;;;5.50;;
56319;SDS011;42226;42.382;23.748;2023-07-31T02:36:59;6.05;;;5.65;;
56319;SDS011;42226;42.382;23.748;2023-07-31T02:39:25;5.85;;;5.35;;
56319;SDS011;42226;42.382;23.748;2023-07-31T02:41:53;6.25;;;5.75;;
56319;SDS011;42226;42.382;23.748;2023-07-31T02:44:20;6.35;;;5.85;;
56319;SDS011;42226;42.382;23.748;2023-07-31T02:46:49;6.20;;;5.70;;
56319;SDS011;42226;42.382;23.748;2023-07-31T02:49:16;5.88;;;5.47;;
56319;SDS011;42226;42.382;23.748;2023-07-31T02:51:43;5.88;;;5.47;;
56319;SDS011;42226;42.382;23.748;2023-07-31T02:54:10;6.45;;;6.05;;
56319;SDS011;42226;42.382;23.748;2023-07-31T02:56:37;6.65;;;6.15;;
56319;SDS011;42226;42.382;23.748;2023-07-31T02:59:04;6.00;;;5.50;;
56319;SDS011;42226;42.382;23.748;2023-07-31T03:01:31;7.32;;;6.72;;
56319;SDS011;42226;42.382;23.748;2023-07-31T03:03:59;9.55;;;8.75;;
56319;SDS011;42226;42.382;23.748;2023-07-31T03:06:27;15.75;;;14.35;;
56319;SDS011;42226;42.382;23.748;2023-07-31T03:08:54;16.40;;;15.00;;
56319;SDS011;42226;42.382;23.748;2023-07-31T03:11:22;16.35;;;14.95;;
56319;SDS011;42226;42.382;23.748;2023-07-31T03:13:49;15.00;;;13.77;;
56319;SDS011;42226;42.382;23.748;2023-07-31T03:16:17;13.02;;;11.93;;
56319;SDS011;42226;42.382;23.748;2023-07-31T03:18:43;12.07;;;11.02;;
56319;SDS011;42226;42.382;23.748;2023-07-31T03:21:12;10.93;;;10.02;;
56319;SDS011;42226;42.382;23.748;2023-07-31T03:23:39;10.82;;;9.60;;
56319;SDS011;42226;42.382;23.748;2023-07-31T03:26:06;10.10;;;9.30;;
56319;SDS011;42226;42.382;23.748;2023-07-31T03:28:34;10.65;;;9.80;;
56319;SDS011;42226;42.382;23.748;2023-07-31T03:31:02;11.80;;;10.70;;
56319;SDS011;42226;42.382;23.748;2023-07-31T03:33:29;11.63;;;10.73;;
56319;SDS011;42226;42.382;23.748;2023-07-31T03:35:57;11.30;;;10.45;;
56319;SDS011;42226;42.382;23.748;2023-07-31T03:38:24;11.45;;;10.50;;
56319;SDS011;42226;42.382;23.748;2023-07-31T03:40:52;12.70;;;11.68;;
56319;SDS011;42226;42.382;23.748;2023-07-31T03:43:19;12.73;;;11.63;;
56319;SDS011;42226;42.382;23.748;2023-07-31T03:45:46;13.60;;;12.40;;
56319;SDS011;42226;42.382;23.748;2023-07-31T03:48:14;14.15;;;12.95;;
56319;SDS011;42226;42.382;23.748;2023-07-31T03:50:41;13.50;;;12.30;;
56319;SDS011;42226;42.382;23.748;2023-07-31T03:53:09;14.50;;;13.13;;
56319;SDS011;42226;42.382;23.748;2023-07-31T03:55:36;12.77;;;11.48;;
56319;SDS011;42226;42.382;23.748;2023-07-31T03:58:04;13.80;;;12.57;;
56319;SDS011;42226;42.382;23.748;2023-07-31T04:00:32;12.23;;;11.20;;
56319;SDS011;42226;42.382;23.748;2023-07-31T04:02:59;12.38;;;11.27;;
56319;SDS011;42226;42.382;23.748;2023-07-31T04:05:29;12.50;;;11.40;;
56319;SDS011;42226;42.382;23.748;2023-07-31T04:07:57;12.05;;;11.15;;
56319;SDS011;42226;42.382;23.748;2023-07-31T04:10:25;11.77;;;10.77;;
56319;SDS011;42226;42.382;23.748;2023-07-31T04:12:52;12.07;;;11.00;;
56319;SDS011;42226;42.382;23.748;2023-07-31T04:15:19;12.57;;;11.57;;
56319;SDS011;42226;42.382;23.748;2023-07-31T04:17:45;10.98;;;10.07;;
56319;SDS011;42226;42.382;23.748;2023-07-31T04:20:13;12.73;;;11.63;;
56319;SDS011;42226;42.382;23.748;2023-07-31T04:22:41;13.27;;;12.15;;
56319;SDS011;42226;42.382;23.748;2023-07-31T04:25:08;13.10;;;11.90;;
56319;SDS011;42226;42.382;23.748;2023-07-31T04:27:36;13.95;;;12.70;;
56319;SDS011;42226;42.382;23.748;2023-07-31T04:30:03;13.85;;;12.63;;
56319;SDS011;42226;42.382;23.748;2023-07-31T04:32:32;13.10;;;11.98;;
56319;SDS011;42226;42.382;23.748;2023-07-31T04:35:01;12.70;;;11.63;;
56319;SDS011;42226;42.382;23.748;2023-07-31T04:37:29;12.23;;;11.13;;
56319;SDS011;42226;42.382;23.748;2023-07-31T04:39:56;23.15;;;12.45;;
56319;SDS011;42226;42.382;23.748;2023-07-31T04:42:24;12.90;;;11.85;;
56319;SDS011;42226;42.382;23.748;2023-07-31T04:44:50;13.98;;;12.77;;
56319;SDS011;42226;42.382;23.748;2023-07-31T04:47:19;13.40;;;12.20;;
56319;SDS011;42226;42.382;23.748;2023-07-31T04:49:45;14.57;;;13.15;;
56319;SDS011;42226;42.382;23.748;2023-07-31T04:52:13;15.13;;;13.82;;
56319;SDS011;42226;42.382;23.748;2023-07-31T04:54:41;14.90;;;13.52;;
56319;SDS011;42226;42.382;23.748;2023-07-31T04:57:08;14.10;;;13.00;;
56319;SDS011;42226;42.382;23.748;2023-07-31T04:59:36;13.80;;;12.70;;
56319;SDS011;42226;42.382;23.748;2023-07-31T05:02:03;15.10;;;13.70;;
56319;SDS011;42226;42.382;23.748;2023-07-31T05:04:33;14.85;;;13.65;;
56319;SDS011;42226;42.382;23.748;2023-07-31T05:07:00;15.57;;;14.27;;
56319;SDS011;42226;42.382;23.748;2023-07-31T05:09:27;14.43;;;13.23;;
56319;SDS011;42226;42.382;23.748;2023-07-31T05:11:53;15.77;;;14.38;;
56319;SDS011;42226;42.382;23.748;2023-07-31T05:14:20;17.70;;;16.13;;
56319;SDS011;42226;42.382;23.748;2023-07-31T05:16:48;17.48;;;15.88;;
56319;SDS011;42226;42.382;23.748;2023-07-31T05:19:15;17.95;;;16.15;;
56319;SDS011;42226;42.382;23.748;2023-07-31T05:21:43;17.45;;;15.95;;
56319;SDS011;42226;42.382;23.748;2023-07-31T05:24:10;19.52;;;17.88;;
56319;SDS011;42226;42.382;23.748;2023-07-31T05:26:37;19.48;;;17.80;;
56319;SDS011;42226;42.382;23.748;2023-07-31T05:29:04;18.25;;;16.63;;
56319;SDS011;42226;42.382;23.748;2023-07-31T05:31:31;19.75;;;17.95;;
56319;SDS011;42226;42.382;23.748;2023-07-31T05:33:58;20.65;;;18.65;;
56319;SDS011;42226;42.382;23.748;2023-07-31T05:36:26;22.15;;;20.20;;
56319;SDS011;42226;42.382;23.748;2023-07-31T05:38:54;21.45;;;19.35;;
56319;SDS011;42226;42.382;23.748;2023-07-31T05:41:21;20.75;;;18.75;;
56319;SDS011;42226;42.382;23.748;2023-07-31T05:43:49;21.52;;;19.08;;
56319;SDS011;42226;42.382;23.748;2023-07-31T05:46:17;20.85;;;18.88;;
56319;SDS011;42226;42.382;23.748;2023-07-31T05:48:45;20.70;;;18.70;;
56319;SDS011;42226;42.382;23.748;2023-07-31T05:51:12;21.65;;;19.48;;
56319;SDS011;42226;42.382;23.748;2023-07-31T05:53:39;21.05;;;19.10;;
56319;SDS011;42226;42.382;23.748;2023-07-31T05:56:06;22.52;;;20.42;;
56319;SDS011;42226;42.382;23.748;2023-07-31T05:58:34;19.88;;;17.88;;
56319;SDS011;42226;42.382;23.748;2023-07-31T06:01:00;20.30;;;18.40;;
56319;SDS011;42226;42.382;23.748;2023-07-31T06:03:28;21.48;;;19.50;;
56319;SDS011;42226;42.382;23.748;2023-07-31T06:05:55;20.13;;;18.33;;
56319;SDS011;42226;42.382;23.748;2023-07-31T06:08:23;21.38;;;19.38;;
56319;SDS011;42226;42.382;23.748;2023-07-31T06:10:50;20.35;;;18.52;;
56319;SDS011;42226;42.382;23.748;2023-07-31T06:13:17;18.52;;;16.75;;
56319;SDS011;42226;42.382;23.748;2023-07-31T06:15:45;18.20;;;16.50;;
56319;SDS011;42226;42.382;23.748;2023-07-31T06:18:11;18.80;;;17.10;;
56319;SDS011;42226;42.382;23.748;2023-07-31T06:20:39;19.42;;;17.50;;
56319;SDS011;42226;42.382;23.748;2023-07-31T06:23:06;19.55;;;17.73;;
56319;SDS011;42226;42.382;23.748;2023-07-31T06:25:34;19.73;;;17.70;;
56319;SDS011;42226;42.382;23.748;2023-07-31T06:28:01;19.35;;;17.55;;
56319;SDS011;42226;42.382;23.748;2023-07-31T06:30:29;18.10;;;16.52;;
56319;SDS011;42226;42.382;23.748;2023-07-31T06:36:13;18.38;;;16.77;;
56319;SDS011;42226;42.382;23.748;2023-07-31T06:38:40;19.30;;;17.40;;
56319;SDS011;42226;42.382;23.748;2023-07-31T06:41:07;17.40;;;15.70;;
56319;SDS011;42226;42.382;23.748;2023-07-31T06:43:36;17.08;;;15.52;;
56319;SDS011;42226;42.382;23.748;2023-07-31T06:46:06;16.40;;;14.95;;
56319;SDS011;42226;42.382;23.748;2023-07-31T06:48:35;17.98;;;16.17;;
56319;SDS011;42226;42.382;23.748;2023-07-31T06:54:50;16.25;;;14.60;;
56319;SDS011;42226;42.382;23.748;2023-07-31T06:58:17;16.67;;;15.07;;
56319;SDS011;42226;42.382;23.748;2023-07-31T07:07:37;13.77;;;12.60;;
56319;SDS011;42226;42.382;23.748;2023-07-31T07:13:02;13.73;;;12.30;;
56319;SDS011;42226;42.382;23.748;2023-07-31T07:15:34;13.15;;;11.98;;
56319;SDS011;42226;42.382;23.748;2023-07-31T07:21:14;11.20;;;10.30;;
56319;SDS011;42226;42.382;23.748;2023-07-31T07:24:17;11.20;;;10.30;;
56319;SDS011;42226;42.382;23.748;2023-07-31T07:30:26;10.55;;;9.75;;
56319;SDS011;42226;42.382;23.748;2023-07-31T07:43:36;10.05;;;9.25;;
56319;SDS011;42226;42.382;23.748;2023-07-31T07:53:29;11.23;;;9.85;;
56319;SDS011;42226;42.382;23.748;2023-07-31T07:55:57;9.95;;;9.15;;
56319;SDS011;42226;42.382;23.748;2023-07-31T07:58:24;8.55;;;7.75;;
56319;SDS011;42226;42.382;23.748;2023-07-31T08:00:52;8.43;;;7.63;;
56319;SDS011;42226;42.382;23.748;2023-07-31T08:03:19;8.00;;;7.40;;
56319;SDS011;42226;42.382;23.748;2023-07-31T08:05:46;9.57;;;8.80;;
56319;SDS011;42226;42.382;23.748;2023-07-31T08:08:15;9.93;;;9.13;;
56319;SDS011;42226;42.382;23.748;2023-07-31T08:10:43;11.15;;;10.15;;
56319;SDS011;42226;42.382;23.748;2023-07-31T08:13:14;11.32;;;10.20;;
56319;SDS011;42226;42.382;23.748;2023-07-31T08:15:41;11.88;;;10.80;;
56319;SDS011;42226;42.382;23.748;2023-07-31T08:18:09;9.90;;;9.10;;
56319;SDS011;42226;42.382;23.748;2023-07-31T08:20:37;9.32;;;8.23;;
56319;SDS011;42226;42.382;23.748;2023-07-31T08:23:05;8.40;;;7.65;;
56319;SDS011;42226;42.382;23.748;2023-07-31T08:25:34;7.43;;;6.82;;
56319;SDS011;42226;42.382;23.748;2023-07-31T08:28:04;8.18;;;7.40;;
56319;SDS011;42226;42.382;23.748;2023-07-31T08:30:31;8.00;;;7.32;;
56319;SDS011;42226;42.382;23.748;2023-07-31T08:32:59;7.43;;;6.72;;
56319;SDS011;42226;42.382;23.748;2023-07-31T08:35:26;7.18;;;6.55;;
56319;SDS011;42226;42.382;23.748;2023-07-31T08:37:56;7.07;;;6.38;;
56319;SDS011;42226;42.382;23.748;2023-07-31T08:40:24;6.93;;;6.43;;
56319;SDS011;42226;42.382;23.748;2023-07-31T08:42:51;7.18;;;6.53;;
56319;SDS011;42226;42.382;23.748;2023-07-31T08:45:22;7.10;;;6.50;;
56319;SDS011;42226;42.382;23.748;2023-07-31T08:47:51;6.95;;;6.30;;
56319;SDS011;42226;42.382;23.748;2023-07-31T08:50:19;6.70;;;6.20;;
56319;SDS011;42226;42.382;23.748;2023-07-31T08:52:47;7.00;;;6.38;;
56319;SDS011;42226;42.382;23.748;2023-07-31T08:55:16;7.00;;;6.40;;
56319;SDS011;42226;42.382;23.748;2023-07-31T08:57:48;7.07;;;6.43;;
56319;SDS011;42226;42.382;23.748;2023-07-31T09:18:21;5.57;;;5.15;;
56319;SDS011;42226;42.382;23.748;2023-07-31T09:21:06;5.97;;;5.50;;
56319;SDS011;42226;42.382;23.748;2023-07-31T09:23:42;5.57;;;5.07;;
56319;SDS011;42226;42.382;23.748;2023-07-31T09:26:28;4.45;;;4.15;;
56319;SDS011;42226;42.382;23.748;2023-07-31T09:28:58;5.20;;;4.80;;
56319;SDS011;42226;42.382;23.748;2023-07-31T09:31:33;4.55;;;4.15;;
56319;SDS011;42226;42.382;23.748;2023-07-31T09:34:07;5.03;;;4.63;;
56319;SDS011;42226;42.382;23.748;2023-07-31T09:36:39;4.80;;;4.50;;
56319;SDS011;42226;42.382;23.748;2023-07-31T09:39:19;4.70;;;4.40;;
56319;SDS011;42226;42.382;23.748;2023-07-31T09:41:56;5.20;;;4.70;;
56319;SDS011;42226;42.382;23.748;2023-07-31T09:44:39;4.47;;;4.18;;
56319;SDS011;42226;42.382;23.748;2023-07-31T09:47:20;4.55;;;4.20;;
56319;SDS011;42226;42.382;23.748;2023-07-31T09:49:49;4.50;;;4.15;;
56319;SDS011;42226;42.382;23.748;2023-07-31T09:52:17;4.22;;;3.90;;
56319;SDS011;42226;42.382;23.748;2023-07-31T09:54:43;4.13;;;3.80;;
56319;SDS011;42226;42.382;23.748;2023-07-31T09:57:11;4.40;;;4.05;;
56319;SDS011;42226;42.382;23.748;2023-07-31T09:59:38;3.58;;;3.38;;
56319;SDS011;42226;42.382;23.748;2023-07-31T10:02:06;3.83;;;3.63;;
56319;SDS011;42226;42.382;23.748;2023-07-31T10:04:38;3.47;;;3.28;;
56319;SDS011;42226;42.382;23.748;2023-07-31T10:07:05;3.40;;;3.10;;
56319;SDS011;42226;42.382;23.748;2023-07-31T10:09:33;3.55;;;3.35;;
56319;SDS011;42226;42.382;23.748;2023-07-31T10:12:01;4.00;;;3.60;;
56319;SDS011;42226;42.382;23.748;2023-07-31T10:14:31;3.78;;;3.47;;
56319;SDS011;42226;42.382;23.748;2023-07-31T10:16:59;3.67;;;3.25;;
56319;SDS011;42226;42.382;23.748;2023-07-31T10:46:54;3.50;;;3.20;;
56319;SDS011;42226;42.382;23.748;2023-07-31T10:56:50;3.55;;;3.35;;
56319;SDS011;42226;42.382;23.748;2023-07-31T11:11:50;3.22;;;3.03;;
56319;SDS011;42226;42.382;23.748;2023-07-31T11:14:17;3.05;;;2.85;;
56319;SDS011;42226;42.382;23.748;2023-07-31T11:16:45;3.85;;;3.55;;
56319;SDS011;42226;42.382;23.748;2023-07-31T11:19:20;3.40;;;3.20;;
56319;SDS011;42226;42.382;23.748;2023-07-31T11:21:49;3.40;;;3.20;;
56319;SDS011;42226;42.382;23.748;2023-07-31T11:27:41;3.65;;;3.38;;
56319;SDS011;42226;42.382;23.748;2023-07-31T11:51:23;4.30;;;4.00;;
56319;SDS011;42226;42.382;23.748;2023-07-31T11:53:51;3.90;;;3.60;;
56319;SDS011;42226;42.382;23.748;2023-07-31T12:14:26;3.95;;;3.65;;
56319;SDS011;42226;42.382;23.748;2023-07-31T12:16:56;3.45;;;3.25;;
56319;SDS011;42226;42.382;23.748;2023-07-31T12:33:13;3.72;;;3.42;;
56319;SDS011;42226;42.382;23.748;2023-07-31T12:57:14;3.70;;;3.40;;
56319;SDS011;42226;42.382;23.748;2023-07-31T13:03:23;3.65;;;3.35;;
56319;SDS011;42226;42.382;23.748;2023-07-31T13:09:49;3.30;;;3.10;;
56319;SDS011;42226;42.382;23.748;2023-07-31T13:12:16;4.63;;;3.47;;
56319;SDS011;42226;42.382;23.748;2023-07-31T13:14:43;3.50;;;3.30;;
56319;SDS011;42226;42.382;23.748;2023-07-31T13:20:51;3.45;;;3.20;;
56319;SDS011;42226;42.382;23.748;2023-07-31T13:48:21;3.63;;;3.42;;
56319;SDS011;42226;42.382;23.748;2023-07-31T14:08:54;4.53;;;4.13;;
56319;SDS011;42226;42.382;23.748;2023-07-31T14:11:24;6.93;;;5.05;;
56319;SDS011;42226;42.382;23.748;2023-07-31T14:13:52;5.43;;;4.90;;
56319;SDS011;42226;42.382;23.748;2023-07-31T14:16:19;5.32;;;4.93;;
56319;SDS011;42226;42.382;23.748;2023-07-31T14:18:47;6.00;;;5.53;;
56319;SDS011;42226;42.382;23.748;2023-07-31T14:21:16;5.38;;;4.88;;
56319;SDS011;42226;42.382;23.748;2023-07-31T14:23:45;5.82;;;5.40;;
56319;SDS011;42226;42.382;23.748;2023-07-31T14:30:00;7.15;;;6.45;;
56319;SDS011;42226;42.382;23.748;2023-07-31T14:39:48;7.93;;;7.20;;
56319;SDS011;42226;42.382;23.748;2023-07-31T14:59:20;6.60;;;6.10;;
56319;SDS011;42226;42.382;23.748;2023-07-31T15:01:48;7.22;;;6.53;;
56319;SDS011;42226;42.382;23.748;2023-07-31T15:04:16;6.97;;;6.47;;
56319;SDS011;42226;42.382;23.748;2023-07-31T15:06:42;8.48;;;6.68;;
56319;SDS011;42226;42.382;23.748;2023-07-31T15:09:10;6.70;;;6.20;;
56319;SDS011;42226;42.382;23.748;2023-07-31T15:27:40;6.40;;;5.97;;
56319;SDS011;42226;42.382;23.748;2023-07-31T15:30:08;6.53;;;6.10;;
56319;SDS011;42226;42.382;23.748;2023-07-31T15:32:36;6.35;;;5.85;;
56319;SDS011;42226;42.382;23.748;2023-07-31T15:35:06;5.90;;;5.50;;
56319;SDS011;42226;42.382;23.748;2023-07-31T15:37:34;6.05;;;5.53;;
56319;SDS011;42226;42.382;23.748;2023-07-31T15:40:01;5.63;;;5.22;;
56319;SDS011;42226;42.382;23.748;2023-07-31T15:42:29;5.20;;;4.80;;
56319;SDS011;42226;42.382;23.748;2023-07-31T15:44:59;4.93;;;4.60;;
56319;SDS011;42226;42.382;23.748;2023-07-31T15:47:26;6.18;;;4.65;;
56319;SDS011;42226;42.382;23.748;2023-07-31T15:49:54;4.60;;;4.30;;
56319;SDS011;42226;42.382;23.748;2023-07-31T15:52:22;4.80;;;4.40;;
56319;SDS011;42226;42.382;23.748;2023-07-31T15:54:49;3.83;;;3.53;;
56319;SDS011;42226;42.382;23.748;2023-07-31T15:57:16;4.22;;;3.92;;
56319;SDS011;42226;42.382;23.748;2023-07-31T15:59:43;4.00;;;3.80;;
56319;SDS011;42226;42.382;23.748;2023-07-31T16:02:10;4.20;;;3.90;;
56319;SDS011;42226;42.382;23.748;2023-07-31T16:04:37;3.60;;;3.35;;
56319;SDS011;42226;42.382;23.748;2023-07-31T16:07:06;4.13;;;3.83;;
56319;SDS011;42226;42.382;23.748;2023-07-31T16:09:33;5.25;;;3.70;;
56319;SDS011;42226;42.382;23.748;2023-07-31T16:12:01;3.95;;;3.65;;
56319;SDS011;42226;42.382;23.748;2023-07-31T16:14:29;3.97;;;3.67;;
56319;SDS011;42226;42.382;23.748;2023-07-31T16:16:56;4.53;;;3.78;;
56319;SDS011;42226;42.382;23.748;2023-07-31T16:38:21;4.20;;;3.90;;
56319;SDS011;42226;42.382;23.748;2023-07-31T16:41:00;3.90;;;3.60;;
56319;SDS011;42226;42.382;23.748;2023-07-31T16:49:53;4.10;;;3.80;;
56319;SDS011;42226;42.382;23.748;2023-07-31T16:52:20;4.35;;;4.05;;
56319;SDS011;42226;42.382;23.748;2023-07-31T16:58:04;4.28;;;3.97;;
56319;SDS011;42226;42.382;23.748;2023-07-31T17:00:32;4.32;;;4.00;;
56319;SDS011;42226;42.382;23.748;2023-07-31T17:06:40;4.35;;;4.05;;
56319;SDS011;42226;42.382;23.748;2023-07-31T17:09:08;4.80;;;4.50;;
56319;SDS011;42226;42.382;23.748;2023-07-31T17:22:46;6.68;;;4.82;;
56319;SDS011;42226;42.382;23.748;2023-07-31T17:25:14;6.03;;;5.60;;
56319;SDS011;42226;42.382;23.748;2023-07-31T17:30:58;5.50;;;5.00;;
56319;SDS011;42226;42.382;23.748;2023-07-31T17:33:26;5.40;;;5.00;;
56319;SDS011;42226;42.382;23.748;2023-07-31T17:35:54;5.25;;;4.93;;
56319;SDS011;42226;42.382;23.748;2023-07-31T17:38:21;5.20;;;4.82;;
56319;SDS011;42226;42.382;23.748;2023-07-31T17:40:51;5.07;;;4.78;;
56319;SDS011;42226;42.382;23.748;2023-07-31T17:43:19;5.60;;;5.20;;
56319;SDS011;42226;42.382;23.748;2023-07-31T17:45:47;5.88;;;5.47;;
56319;SDS011;42226;42.382;23.748;2023-07-31T17:48:15;5.63;;;5.22;;
56319;SDS011;42226;42.382;23.748;2023-07-31T17:50:43;5.88;;;5.38;;
56319;SDS011;42226;42.382;23.748;2023-07-31T17:53:17;5.70;;;5.30;;
56319;SDS011;42226;42.382;23.748;2023-07-31T17:55:46;5.72;;;5.32;;
56319;SDS011;42226;42.382;23.748;2023-07-31T17:58:13;5.70;;;5.30;;
56319;SDS011;42226;42.382;23.748;2023-07-31T18:00:41;5.35;;;4.95;;
56319;SDS011;42226;42.382;23.748;2023-07-31T18:03:08;5.30;;;5.00;;
56319;SDS011;42226;42.382;23.748;2023-07-31T18:05:38;5.85;;;5.45;;
56319;SDS011;42226;42.382;23.748;2023-07-31T18:08:05;5.63;;;5.22;;
56319;SDS011;42226;42.382;23.748;2023-07-31T18:10:32;5.57;;;5.18;;
56319;SDS011;42226;42.382;23.748;2023-07-31T18:13:00;5.40;;;5.00;;
56319;SDS011;42226;42.382;23.748;2023-07-31T18:15:27;5.25;;;4.90;;
56319;SDS011;42226;42.382;23.748;2023-07-31T18:17:55;5.40;;;5.00;;
56319;SDS011;42226;42.382;23.748;2023-07-31T18:20:22;4.97;;;4.65;;
56319;SDS011;42226;42.382;23.748;2023-07-31T18:22:50;4.50;;;4.20;;
56319;SDS011;42226;42.382;23.748;2023-07-31T18:25:17;5.20;;;4.80;;
56319;SDS011;42226;42.382;23.748;2023-07-31T18:27:44;5.35;;;5.00;;
56319;SDS011;42226;42.382;23.748;2023-07-31T18:30:12;5.22;;;4.93;;
56319;SDS011;42226;42.382;23.748;2023-07-31T18:32:40;5.53;;;5.10;;
56319;SDS011;42226;42.382;23.748;2023-07-31T18:35:07;5.20;;;4.80;;
56319;SDS011;42226;42.382;23.748;2023-07-31T18:37:34;5.28;;;4.88;;
56319;SDS011;42226;42.382;23.748;2023-07-31T18:40:02;5.40;;;5.00;;
56319;SDS011;42226;42.382;23.748;2023-07-31T18:42:30;5.20;;;4.80;;
56319;SDS011;42226;42.382;23.748;2023-07-31T18:44:58;5.07;;;4.70;;
56319;SDS011;42226;42.382;23.748;2023-07-31T18:47:25;4.68;;;4.38;;
56319;SDS011;42226;42.382;23.748;2023-07-31T18:49:52;5.22;;;4.80;;
56319;SDS011;42226;42.382;23.748;2023-07-31T18:52:19;5.28;;;4.88;;
56319;SDS011;42226;42.382;23.748;2023-07-31T18:54:46;5.70;;;4.68;;
56319;SDS011;42226;42.382;23.748;2023-07-31T18:57:14;5.40;;;4.78;;
56319;SDS011;42226;42.382;23.748;2023-07-31T18:59:42;5.05;;;4.70;;
56319;SDS011;42226;42.382;23.748;2023-07-31T19:02:09;5.07;;;4.68;;
56319;SDS011;42226;42.382;23.748;2023-07-31T19:04:37;5.32;;;4.90;;
56319;SDS011;42226;42.382;23.748;2023-07-31T19:07:04;5.07;;;4.68;;
56319;SDS011;42226;42.382;23.748;2023-07-31T19:09:33;5.32;;;4.93;;
56319;SDS011;42226;42.382;23.748;2023-07-31T19:12:02;5.30;;;5.00;;
56319;SDS011;42226;42.382;23.748;2023-07-31T19:14:30;5.70;;;5.20;;
56319;SDS011;42226;42.382;23.748;2023-07-31T19:16:57;5.70;;;5.20;;
56319;SDS011;42226;42.382;23.748;2023-07-31T19:19:24;5.25;;;4.80;;
56319;SDS011;42226;42.382;23.748;2023-07-31T19:21:52;5.57;;;4.82;;
56319;SDS011;42226;42.382;23.748;2023-07-31T19:24:18;5.18;;;4.80;;
56319;SDS011;42226;42.382;23.748;2023-07-31T19:26:46;5.50;;;5.10;;
56319;SDS011;42226;42.382;23.748;2023-07-31T19:29:14;5.78;;;5.28;;
56319;SDS011;42226;42.382;23.748;2023-07-31T19:31:42;5.63;;;5.22;;
56319;SDS011;42226;42.382;23.748;2023-07-31T19:34:10;5.28;;;4.88;;
56319;SDS011;42226;42.382;23.748;2023-07-31T19:36:38;5.40;;;5.00;;
56319;SDS011;42226;42.382;23.748;2023-07-31T19:39:08;5.65;;;5.25;;
56319;SDS011;42226;42.382;23.748;2023-07-31T19:41:35;5.45;;;4.95;;
56319;SDS011;42226;42.382;23.748;2023-07-31T19:44:05;5.18;;;4.78;;
56319;SDS011;42226;42.382;23.748;2023-07-31T19:46:32;5.10;;;4.68;;
56319;SDS011;42226;42.382;23.748;2023-07-31T19:49:00;5.28;;;4.90;;
56319;SDS011;42226;42.382;23.748;2023-07-31T19:51:27;5.38;;;4.97;;
56319;SDS011;42226;42.382;23.748;2023-07-31T19:53:54;5.22;;;4.80;;
56319;SDS011;42226;42.382;23.748;2023-07-31T19:56:21;5.70;;;4.95;;
56319;SDS011;42226;42.382;23.748;2023-07-31T19:58:48;5.03;;;4.63;;
56319;SDS011;42226;42.382;23.748;2023-07-31T20:01:16;5.68;;;5.28;;
56319;SDS011;42226;42.382;23.748;2023-07-31T20:03:44;5.53;;;5.07;;
56319;SDS011;42226;42.382;23.748;2023-07-31T20:06:12;5.30;;;4.97;;
56319;SDS011;42226;42.382;23.748;2023-07-31T20:08:40;4.97;;;4.68;;